Buffalo, North Dakota
Current Conditions -  °F | °C
As of 6:55 AM on Wednesday 26 Nov 2014 (Local Time) from KBAC Reporting Station
Broken Clouds Broken Clouds  
Wind Chill: -14°   Ceiling: 6500
Heat Index:   Visibility: 10mi
Dew Point: -4°   Wind: 10mph
Humidity: 78%   Direction: 350°N
Pressure: 30.29"   Gusts: NA
Location:  46.92°N, 97.55°W
Report Text: KBAC 261255Z AUTO 35009KT 10SM FEW036 SCT044 BKN065 M17/M20 A3029 RMK AO2
Loading
Personal Weather Stations






























Interactive Weather Map New forecast layout! Learn more

10-Day Weather Forecast

Advertisements
Track Severe Weather on mobile